createdAt,value
2017-01-16T00:00:30.976Z,970.39
2017-01-16T00:01:30.967Z,970.36
2017-01-16T00:02:30.963Z,970.35
2017-01-16T00:03:30.960Z,970.33
2017-01-16T00:04:30.956Z,970.37
2017-01-16T00:05:30.952Z,970.36
2017-01-16T00:06:30.948Z,970.34
2017-01-16T00:07:30.944Z,970.34
2017-01-16T00:08:30.940Z,970.32
2017-01-16T00:09:30.936Z,970.34
2017-01-16T00:10:30.932Z,970.3
2017-01-16T00:11:30.927Z,970.31
2017-01-16T00:12:30.916Z,970.31
2017-01-16T00:13:30.913Z,970.27
2017-01-16T00:14:30.908Z,970.28
2017-01-16T00:15:30.904Z,970.26
2017-01-16T00:16:30.900Z,970.27
2017-01-16T00:17:30.900Z,970.22
2017-01-16T00:18:30.896Z,970.22
2017-01-16T00:19:30.892Z,970.23
2017-01-16T00:20:30.888Z,970.24
2017-01-16T00:21:30.880Z,970.23
2017-01-16T00:22:30.880Z,970.22
2017-01-16T00:23:30.876Z,970.21
2017-01-16T00:24:30.868Z,970.2
2017-01-16T00:25:30.864Z,970.19
2017-01-16T00:26:30.860Z,970.21
2017-01-16T00:27:30.852Z,970.24
2017-01-16T00:28:30.848Z,970.22
2017-01-16T00:29:30.844Z,970.17
2017-01-16T00:30:30.840Z,970.21
2017-01-16T00:31:30.840Z,970.21
2017-01-16T00:32:30.838Z,970.23
2017-01-16T00:33:30.832Z,970.24
2017-01-16T00:34:30.828Z,970.24
2017-01-16T00:35:30.824Z,970.24
2017-01-16T00:36:30.816Z,970.23
2017-01-16T00:37:30.816Z,970.24
2017-01-16T00:38:30.808Z,970.25
2017-01-16T00:39:30.804Z,970.26
2017-01-16T00:40:30.797Z,970.26
2017-01-16T00:41:30.796Z,970.25
2017-01-16T00:42:30.793Z,970.24
2017-01-16T00:43:30.788Z,970.24
2017-01-16T00:44:30.784Z,970.25
2017-01-16T00:45:30.780Z,970.26
2017-01-16T00:46:30.776Z,970.28
2017-01-16T00:47:30.772Z,970.26
2017-01-16T00:48:30.764Z,970.23
2017-01-16T00:49:30.756Z,970.2
2017-01-16T00:50:30.752Z,970.24
2017-01-16T00:51:30.752Z,970.22
2017-01-16T00:52:30.744Z,970.18
2017-01-16T00:53:30.744Z,970.2
2017-01-16T00:54:30.740Z,970.17
2017-01-16T00:55:30.736Z,970.19
2017-01-16T00:56:30.732Z,970.19
2017-01-16T00:57:30.728Z,970.19
2017-01-16T00:58:30.724Z,970.17
2017-01-16T00:59:30.720Z,970.19
2017-01-16T01:00:30.712Z,970.17
2017-01-16T01:01:30.704Z,970.17
2017-01-16T01:02:30.704Z,970.18
2017-01-16T01:03:30.696Z,970.16
2017-01-16T01:04:30.692Z,970.16
2017-01-16T01:05:30.688Z,970.16
2017-01-16T01:06:30.688Z,970.14
2017-01-16T01:07:30.684Z,970.15
2017-01-16T01:08:30.680Z,970.12
2017-01-16T01:09:30.676Z,970.12
2017-01-16T01:10:30.672Z,970.14
2017-01-16T01:11:30.664Z,970.11
2017-01-16T01:12:30.656Z,970.13
2017-01-16T01:13:30.653Z,970.14
2017-01-16T01:14:30.648Z,970.09
2017-01-16T01:15:30.648Z,970.09
2017-01-16T01:16:30.644Z,970.1
2017-01-16T01:17:30.640Z,970.12
2017-01-16T01:18:30.636Z,970.12
2017-01-16T01:19:30.632Z,970.12
2017-01-16T01:20:30.628Z,970.06
2017-01-16T01:21:30.624Z,970.11
2017-01-16T01:22:30.612Z,970.15
2017-01-16T01:23:30.608Z,970.15
2017-01-16T01:24:30.605Z,970.17
2017-01-16T01:25:30.600Z,970.14
2017-01-16T01:26:30.600Z,970.12
2017-01-16T01:27:30.597Z,970.13
2017-01-16T01:28:30.592Z,970.14
2017-01-16T01:29:30.589Z,970.13
2017-01-16T01:30:30.584Z,970.16
2017-01-16T01:31:30.580Z,970.1
2017-01-16T01:32:30.576Z,970.11
2017-01-16T01:33:30.565Z,970.1
2017-01-16T01:34:30.564Z,970.12
2017-01-16T01:35:30.561Z,970.09
2017-01-16T01:36:30.556Z,970.09
2017-01-16T01:37:30.553Z,970.14
2017-01-16T01:38:30.549Z,970.09
2017-01-16T01:39:30.544Z,970.09
2017-01-16T01:40:30.540Z,970.12
2017-01-16T01:41:30.537Z,970.11
2017-01-16T01:42:30.532Z,970.13
2017-01-16T01:43:30.529Z,970.06
2017-01-16T01:44:30.520Z,970.05
2017-01-16T01:45:30.517Z,970.06
2017-01-16T01:46:30.513Z,970.08
2017-01-16T01:47:30.508Z,970.08
2017-01-16T01:48:30.507Z,970.09
2017-01-16T01:49:30.505Z,970.04
2017-01-16T01:50:30.493Z,970.02
2017-01-16T01:51:30.489Z,970.09
2017-01-16T01:52:30.485Z,970.07
2017-01-16T01:53:30.485Z,970.03
2017-01-16T01:54:30.483Z,970.06
2017-01-16T01:55:30.473Z,970.05
2017-01-16T01:56:30.469Z,970.05
2017-01-16T01:57:30.464Z,970.03
2017-01-16T01:58:30.457Z,970.03
2017-01-16T01:59:30.457Z,969.99
2017-01-16T02:00:30.464Z,970.02
2017-01-16T02:01:30.449Z,970.04
2017-01-16T02:02:30.441Z,970.07
2017-01-16T02:03:30.433Z,970.08
2017-01-16T02:04:30.429Z,970.07
2017-01-16T02:05:30.429Z,970.06
2017-01-16T02:06:30.425Z,970.06
2017-01-16T02:07:30.421Z,970.1
2017-01-16T02:08:30.417Z,970.08
2017-01-16T02:09:30.410Z,970.06
2017-01-16T02:10:30.405Z,970.05
2017-01-16T02:11:30.402Z,970.08
2017-01-16T02:12:30.401Z,970.06
2017-01-16T02:13:30.393Z,970.04
2017-01-16T02:14:30.386Z,970.07
2017-01-16T02:15:30.381Z,970.08
2017-01-16T02:16:30.381Z,970.04
2017-01-16T02:17:30.378Z,970.03
2017-01-16T02:18:30.373Z,969.99
2017-01-16T02:19:30.369Z,970
2017-01-16T02:20:30.361Z,970.01
2017-01-16T02:21:30.357Z,970
2017-01-16T02:22:30.353Z,969.99
2017-01-16T02:23:30.346Z,969.99
2017-01-16T02:24:30.342Z,970.01
2017-01-16T02:25:30.337Z,970
2017-01-16T02:26:30.337Z,970.02
2017-01-16T02:27:30.333Z,969.99
2017-01-16T02:28:30.325Z,969.98
2017-01-16T02:29:30.325Z,970.01
2017-01-16T02:30:30.321Z,970.01
2017-01-16T02:31:30.313Z,970.01
2017-01-16T02:32:30.305Z,969.99
2017-01-16T02:33:30.301Z,970
2017-01-16T02:34:30.305Z,970.02
2017-01-16T02:35:30.297Z,970
2017-01-16T02:36:30.293Z,970.04
2017-01-16T02:37:30.286Z,969.99
2017-01-16T02:38:30.281Z,970.02
2017-01-16T02:39:30.278Z,970.01
2017-01-16T02:40:30.270Z,970
2017-01-16T02:41:30.265Z,970
2017-01-16T02:42:30.266Z,969.99
2017-01-16T02:43:30.262Z,970.02
2017-01-16T02:44:30.257Z,969.99
2017-01-16T02:45:30.253Z,970.02
2017-01-16T02:46:30.246Z,969.96
2017-01-16T02:47:30.241Z,969.96
2017-01-16T02:48:30.234Z,969.94
2017-01-16T02:49:30.234Z,969.95
2017-01-16T02:50:30.230Z,969.94
2017-01-16T02:51:30.226Z,969.95
2017-01-16T02:52:30.223Z,969.97
2017-01-16T02:53:30.214Z,969.98
2017-01-16T02:54:30.232Z,969.93
2017-01-16T02:55:30.202Z,969.95
2017-01-16T02:56:30.202Z,969.95
2017-01-16T02:57:30.198Z,969.96
2017-01-16T02:58:30.194Z,969.94
2017-01-16T02:59:30.187Z,969.88
2017-01-16T03:00:30.183Z,969.89
2017-01-16T03:01:30.179Z,969.9
2017-01-16T03:02:30.174Z,969.87
2017-01-16T03:03:30.166Z,969.88
2017-01-16T03:04:30.166Z,969.88
2017-01-16T03:05:30.162Z,969.88
2017-01-16T03:06:30.155Z,969.83
2017-01-16T03:07:30.155Z,969.89
2017-01-16T03:08:30.146Z,969.88
2017-01-16T03:09:30.139Z,969.9
2017-01-16T03:10:30.139Z,969.88
2017-01-16T03:11:30.135Z,969.9
2017-01-16T03:12:30.131Z,969.84
2017-01-16T03:13:30.123Z,969.87
2017-01-16T03:14:30.123Z,969.85
2017-01-16T03:15:30.115Z,969.9
2017-01-16T03:16:30.111Z,969.84
2017-01-16T03:17:30.107Z,969.86
2017-01-16T03:18:30.103Z,969.84
2017-01-16T03:19:30.095Z,969.85
2017-01-16T03:20:30.095Z,969.83
2017-01-16T03:21:30.091Z,969.83
2017-01-16T03:22:30.100Z,969.83
2017-01-16T03:23:30.079Z,969.81
2017-01-16T03:24:30.075Z,969.83
2017-01-16T03:25:30.071Z,969.83
2017-01-16T03:26:30.064Z,969.83
2017-01-16T03:27:30.063Z,969.81
2017-01-16T03:28:30.060Z,969.76
2017-01-16T03:29:30.051Z,969.78
2017-01-16T03:30:30.044Z,969.8
2017-01-16T03:31:30.044Z,969.81
2017-01-16T03:32:30.039Z,969.79
2017-01-16T03:33:30.032Z,969.78
2017-01-16T03:34:30.032Z,969.77
2017-01-16T03:35:30.028Z,969.78
2017-01-16T03:36:30.016Z,969.81
2017-01-16T03:37:30.012Z,969.79
2017-01-16T03:38:30.012Z,969.8
2017-01-16T03:39:30.008Z,969.78
2017-01-16T03:40:30.000Z,969.82
2017-01-16T03:41:30.000Z,969.78
2017-01-16T03:42:29.996Z,969.75
2017-01-16T03:43:29.985Z,969.79
2017-01-16T03:44:29.980Z,969.8
2017-01-16T03:45:29.981Z,969.79
2017-01-16T03:46:29.976Z,969.8
2017-01-16T03:47:29.969Z,969.8
2017-01-16T03:48:29.969Z,969.78
2017-01-16T03:49:29.965Z,969.8
2017-01-16T03:50:29.956Z,969.78
2017-01-16T03:51:29.948Z,969.76
2017-01-16T03:52:29.949Z,969.77
2017-01-16T03:53:29.945Z,969.79
2017-01-16T03:54:29.941Z,969.8
2017-01-16T03:55:29.934Z,969.81
2017-01-16T03:56:29.933Z,969.78
2017-01-16T03:57:29.925Z,969.82
2017-01-16T03:58:29.917Z,969.83
2017-01-16T03:59:29.917Z,969.83
2017-01-16T04:00:29.914Z,969.77
2017-01-16T04:01:29.909Z,969.78
2017-01-16T04:02:29.901Z,969.78
2017-01-16T04:03:29.898Z,969.74
2017-01-16T04:04:29.897Z,969.79
2017-01-16T04:05:29.893Z,969.77
2017-01-16T04:06:29.882Z,969.77
2017-01-16T04:07:29.882Z,969.78
2017-01-16T04:08:29.878Z,969.8
2017-01-16T04:09:29.874Z,969.77
2017-01-16T04:10:29.866Z,969.77
2017-01-16T04:11:29.866Z,969.8
2017-01-16T04:12:29.862Z,969.8
2017-01-16T04:13:29.854Z,969.77
2017-01-16T04:14:29.846Z,969.74
2017-01-16T04:15:29.846Z,969.77
2017-01-16T04:16:29.842Z,969.81
2017-01-16T04:17:29.838Z,969.78
2017-01-16T04:18:29.834Z,969.79
2017-01-16T04:19:29.827Z,969.75
2017-01-16T04:20:29.826Z,969.77
2017-01-16T04:21:29.818Z,969.75
2017-01-16T04:22:29.810Z,969.78
2017-01-16T04:23:29.810Z,969.76
2017-01-16T04:24:29.806Z,969.78
2017-01-16T04:25:29.802Z,969.81
2017-01-16T04:26:29.795Z,969.76
2017-01-16T04:27:29.795Z,969.78
2017-01-16T04:28:29.791Z,969.78
2017-01-16T04:29:29.782Z,969.75
2017-01-16T04:30:29.775Z,969.76
2017-01-16T04:31:29.775Z,969.77
2017-01-16T04:32:29.771Z,969.79
2017-01-16T04:33:29.767Z,969.79
2017-01-16T04:34:29.759Z,969.81
2017-01-16T04:35:29.755Z,969.78
2017-01-16T04:36:29.755Z,969.82
2017-01-16T04:37:29.747Z,969.78
2017-01-16T04:38:29.739Z,969.84
2017-01-16T04:39:29.735Z,969.87
2017-01-16T04:40:29.735Z,969.87
2017-01-16T04:41:29.731Z,969.89
2017-01-16T04:42:29.727Z,969.9
2017-01-16T04:43:29.723Z,969.87
2017-01-16T04:44:29.715Z,969.85
2017-01-16T04:45:29.711Z,969.86
2017-01-16T04:46:29.708Z,969.87
2017-01-16T04:47:29.704Z,969.86
2017-01-16T04:48:29.696Z,969.9
2017-01-16T04:49:29.696Z,969.89
2017-01-16T04:50:29.692Z,969.9
2017-01-16T04:51:29.688Z,969.9
2017-01-16T04:52:29.680Z,969.93
2017-01-16T04:53:29.676Z,969.98
2017-01-16T04:54:29.672Z,969.89
2017-01-16T04:55:29.668Z,969.93
2017-01-16T04:56:29.664Z,969.9
2017-01-16T04:57:29.660Z,969.93
2017-01-16T04:58:29.652Z,969.92
2017-01-16T04:59:29.652Z,969.91
2017-01-16T05:00:29.648Z,969.89
2017-01-16T05:01:29.640Z,969.92
2017-01-16T05:02:29.635Z,969.92
2017-01-16T05:03:29.632Z,969.92
2017-01-16T05:04:29.628Z,969.92
2017-01-16T05:05:29.624Z,969.9
2017-01-16T05:06:29.620Z,969.89
2017-01-16T05:07:29.613Z,969.89
2017-01-16T05:08:29.608Z,969.9
2017-01-16T05:09:29.608Z,969.88
2017-01-16T05:10:29.604Z,969.91
2017-01-16T05:11:29.597Z,969.88
2017-01-16T05:12:29.588Z,969.88
2017-01-16T05:13:29.589Z,969.92
2017-01-16T05:14:29.585Z,969.86
2017-01-16T05:15:29.581Z,969.86
2017-01-16T05:16:29.577Z,969.87
2017-01-16T05:17:29.573Z,969.85
2017-01-16T05:18:29.569Z,969.86
2017-01-16T05:19:29.561Z,969.88
2017-01-16T05:20:29.557Z,969.82
2017-01-16T05:21:29.553Z,969.84
2017-01-16T05:22:29.545Z,969.86
2017-01-16T05:23:29.546Z,969.85
2017-01-16T05:24:29.541Z,969.88
2017-01-16T05:25:29.537Z,969.86
2017-01-16T05:26:29.533Z,969.84
2017-01-16T05:27:29.521Z,969.87
2017-01-16T05:28:29.517Z,969.85
2017-01-16T05:29:29.538Z,969.86
2017-01-16T05:30:29.513Z,969.87
2017-01-16T05:31:29.509Z,969.83
2017-01-16T05:32:29.505Z,969.89
2017-01-16T05:33:29.498Z,969.85
2017-01-16T05:34:29.497Z,969.85
2017-01-16T05:35:29.493Z,969.88
2017-01-16T05:36:29.490Z,969.9
2017-01-16T05:37:29.486Z,969.91
2017-01-16T05:38:29.478Z,969.93
2017-01-16T05:39:29.470Z,969.88
2017-01-16T05:40:29.470Z,969.93
2017-01-16T05:41:29.466Z,969.96
2017-01-16T05:42:29.462Z,969.93
2017-01-16T05:43:29.457Z,969.95
2017-01-16T05:44:29.454Z,969.93
2017-01-16T05:45:29.450Z,969.96
2017-01-16T05:46:29.446Z,969.96
2017-01-16T05:47:29.438Z,969.95
2017-01-16T05:48:29.430Z,969.98
2017-01-16T05:49:29.426Z,970
2017-01-16T05:50:29.422Z,969.98
2017-01-16T05:51:29.422Z,970.01
2017-01-16T05:52:29.418Z,969.99
2017-01-16T05:53:29.411Z,969.98
2017-01-16T05:54:29.406Z,969.99
2017-01-16T05:55:29.406Z,969.96
2017-01-16T05:56:29.398Z,969.95
2017-01-16T05:57:29.394Z,969.97
2017-01-16T05:58:29.387Z,969.96
2017-01-16T05:59:29.387Z,969.94
2017-01-16T06:00:29.383Z,969.95
2017-01-16T06:01:29.378Z,969.9
2017-01-16T06:02:29.375Z,969.89
2017-01-16T06:03:29.367Z,969.93
2017-01-16T06:04:29.363Z,969.92
2017-01-16T06:05:29.359Z,969.94
2017-01-16T06:06:29.355Z,969.96
2017-01-16T06:07:29.347Z,969.98
2017-01-16T06:08:29.348Z,969.95
2017-01-16T06:09:29.343Z,969.97
2017-01-16T06:10:29.335Z,970
2017-01-16T06:11:29.327Z,969.99
2017-01-16T06:12:29.327Z,970
2017-01-16T06:13:29.323Z,970.02
2017-01-16T06:14:29.315Z,970.02
2017-01-16T06:15:29.311Z,970.08
2017-01-16T06:16:29.311Z,970.07
2017-01-16T06:17:29.307Z,970.07
2017-01-16T06:18:29.295Z,970.08
2017-01-16T06:19:29.295Z,970.1
2017-01-16T06:20:29.291Z,970.1
2017-01-16T06:21:29.287Z,970.1
2017-01-16T06:22:29.280Z,970.13
2017-01-16T06:23:29.280Z,970.14
2017-01-16T06:24:29.275Z,970.16
2017-01-16T06:25:29.267Z,970.18
2017-01-16T06:26:29.264Z,970.18
2017-01-16T06:27:29.259Z,970.18
2017-01-16T06:28:29.255Z,970.18
2017-01-16T06:29:29.248Z,970.2
2017-01-16T06:30:29.247Z,970.23
2017-01-16T06:31:29.243Z,970.21
2017-01-16T06:32:29.231Z,970.22
2017-01-16T06:33:29.232Z,970.26
2017-01-16T06:34:29.228Z,970.25
2017-01-16T06:35:29.220Z,970.28
2017-01-16T06:36:29.220Z,970.25
2017-01-16T06:37:29.216Z,970.28
2017-01-16T06:38:29.212Z,970.31
2017-01-16T06:39:29.208Z,970.36
2017-01-16T06:40:29.200Z,970.27
2017-01-16T06:41:29.196Z,970.29
2017-01-16T06:42:29.191Z,970.34
2017-01-16T06:43:29.188Z,970.35
2017-01-16T06:44:29.184Z,970.32
2017-01-16T06:45:29.176Z,970.3
2017-01-16T06:46:29.176Z,970.28
2017-01-16T06:47:29.168Z,970.32
2017-01-16T06:48:29.160Z,970.3
2017-01-16T06:49:29.160Z,970.34
2017-01-16T06:50:29.156Z,970.33
2017-01-16T06:51:29.152Z,970.36
2017-01-16T06:52:29.148Z,970.35
2017-01-16T06:53:29.144Z,970.34
2017-01-16T06:54:29.132Z,970.37
2017-01-16T06:55:29.133Z,970.38
2017-01-16T06:56:29.128Z,970.38
2017-01-16T06:57:29.124Z,970.37
2017-01-16T06:58:29.116Z,970.33
2017-01-16T06:59:29.116Z,970.33
2017-01-16T07:00:29.108Z,970.36
2017-01-16T07:01:29.100Z,970.36
2017-01-16T07:02:29.100Z,970.41
2017-01-16T07:03:29.096Z,970.36
2017-01-16T07:04:29.088Z,970.35
2017-01-16T07:05:29.088Z,970.35
2017-01-16T07:06:29.084Z,970.35
2017-01-16T07:07:29.073Z,970.38
2017-01-16T07:08:29.072Z,970.36
2017-01-16T07:09:29.068Z,970.4
2017-01-16T07:10:29.064Z,970.39
2017-01-16T07:11:29.060Z,970.38
2017-01-16T07:12:29.056Z,970.42
2017-01-16T07:13:29.052Z,970.42
2017-01-16T07:14:29.044Z,970.43
2017-01-16T07:15:29.040Z,970.43
2017-01-16T07:16:29.035Z,970.42
2017-01-16T07:17:29.028Z,970.42
2017-01-16T07:18:29.028Z,970.43
2017-01-16T07:19:29.023Z,970.43
2017-01-16T07:20:29.019Z,970.49
2017-01-16T07:21:29.011Z,970.45
2017-01-16T07:22:29.011Z,970.44
2017-01-16T07:23:29.003Z,970.48
2017-01-16T07:24:28.995Z,970.47
2017-01-16T07:25:28.995Z,970.5
2017-01-16T07:26:28.991Z,970.52
2017-01-16T07:27:28.987Z,970.53
2017-01-16T07:28:28.983Z,970.55
2017-01-16T07:29:28.979Z,970.6
2017-01-16T07:30:28.971Z,970.59
2017-01-16T07:31:28.963Z,970.56
2017-01-16T07:32:28.959Z,970.64
2017-01-16T07:33:28.959Z,970.64
2017-01-16T07:34:28.955Z,970.66
2017-01-16T07:35:28.948Z,970.66
2017-01-16T07:36:28.947Z,970.65
2017-01-16T07:37:28.943Z,970.68
2017-01-16T07:38:28.935Z,970.67
2017-01-16T07:39:28.931Z,970.68
2017-01-16T07:40:28.927Z,970.7
2017-01-16T07:41:28.923Z,970.68
2017-01-16T07:42:28.919Z,970.69
2017-01-16T07:43:28.911Z,970.67
2017-01-16T07:44:28.913Z,970.67
2017-01-16T07:45:28.903Z,970.68
2017-01-16T07:46:28.899Z,970.7
2017-01-16T07:47:28.891Z,970.68
2017-01-16T07:48:28.891Z,970.67
2017-01-16T07:49:28.887Z,970.73
2017-01-16T07:50:28.883Z,970.69
2017-01-16T07:51:28.875Z,970.72
2017-01-16T07:52:28.871Z,970.72
2017-01-16T07:53:28.866Z,970.77
2017-01-16T07:54:28.863Z,970.77
2017-01-16T07:55:28.859Z,970.77
2017-01-16T07:56:28.851Z,970.79
2017-01-16T07:57:28.851Z,970.81
2017-01-16T07:58:28.847Z,970.78
2017-01-16T07:59:28.843Z,970.73
2017-01-16T08:00:28.835Z,970.78
2017-01-16T08:01:28.831Z,970.85
2017-01-16T08:02:28.823Z,970.84
2017-01-16T08:03:28.823Z,970.84
2017-01-16T08:04:28.819Z,970.94
2017-01-16T08:05:28.815Z,970.94
2017-01-16T08:06:28.811Z,970.95
2017-01-16T08:07:28.807Z,970.95
2017-01-16T08:08:28.803Z,970.94
2017-01-16T08:09:28.796Z,970.95
2017-01-16T08:10:28.791Z,970.9
2017-01-16T08:11:28.788Z,970.92
2017-01-16T08:12:28.782Z,970.93
2017-01-16T08:13:28.778Z,970.96
2017-01-16T08:14:28.774Z,970.94
2017-01-16T08:15:28.770Z,970.93
2017-01-16T08:16:28.766Z,970.91
2017-01-16T08:17:28.761Z,970.93
2017-01-16T08:18:28.758Z,970.92
2017-01-16T08:19:28.754Z,970.89
2017-01-16T08:20:28.749Z,970.96
2017-01-16T08:21:28.746Z,970.93
2017-01-16T08:22:28.734Z,970.95
2017-01-16T08:23:28.730Z,970.95
2017-01-16T08:24:28.730Z,970.95
2017-01-16T08:25:28.722Z,970.97
2017-01-16T08:26:28.722Z,970.98
2017-01-16T08:27:28.718Z,970.93
2017-01-16T08:28:28.714Z,970.95
2017-01-16T08:29:28.709Z,970.97
2017-01-16T08:30:28.702Z,970.93
2017-01-16T08:31:28.702Z,970.95
2017-01-16T08:32:28.697Z,970.95
2017-01-16T08:33:28.694Z,970.94
2017-01-16T08:34:28.690Z,970.92
2017-01-16T08:35:28.682Z,970.96
2017-01-16T08:36:28.682Z,970.96
2017-01-16T08:37:28.674Z,970.96
2017-01-16T08:38:28.670Z,970.97
2017-01-16T08:39:28.666Z,970.97
2017-01-16T08:40:28.662Z,970.96
2017-01-16T08:41:28.658Z,971.02
2017-01-16T08:42:28.654Z,971.01
2017-01-16T08:43:28.646Z,971.02
2017-01-16T08:44:28.642Z,971.01
2017-01-16T08:45:28.638Z,971.02
2017-01-16T08:46:28.640Z,971.02
2017-01-16T08:47:28.634Z,971.04
2017-01-16T08:48:28.630Z,971.07
2017-01-16T08:49:28.626Z,971.09
2017-01-16T08:50:28.622Z,971.08
2017-01-16T08:51:28.614Z,971.07
2017-01-16T08:52:28.612Z,971.09
2017-01-16T08:53:28.610Z,971.09
2017-01-16T08:54:28.606Z,971.06
2017-01-16T08:55:28.602Z,971.09
2017-01-16T08:56:28.598Z,971.06
2017-01-16T08:57:28.591Z,971.02
2017-01-16T08:58:28.591Z,971.05
2017-01-16T08:59:28.586Z,971.09
2017-01-16T09:00:28.579Z,971.1
2017-01-16T09:01:28.579Z,971.08
2017-01-16T09:02:28.575Z,971.1
2017-01-16T09:03:28.567Z,971.09
2017-01-16T09:04:28.567Z,971.12
2017-01-16T09:05:28.563Z,971.13
2017-01-16T09:06:28.559Z,971.14
2017-01-16T09:07:28.555Z,971.18
2017-01-16T09:08:28.552Z,971.17
2017-01-16T09:09:28.548Z,971.17
2017-01-16T09:10:28.544Z,971.19
2017-01-16T09:11:28.540Z,971.17
2017-01-16T09:12:28.536Z,971.2
2017-01-16T09:13:28.528Z,971.17
2017-01-16T09:14:28.532Z,971.14
2017-01-16T09:15:28.528Z,971.17
2017-01-16T09:16:28.524Z,971.15
2017-01-16T09:17:28.521Z,971.13
2017-01-16T09:18:28.517Z,971.12
2017-01-16T09:19:28.512Z,971.12
2017-01-16T09:20:28.505Z,971.13
2017-01-16T09:21:28.505Z,971.08
2017-01-16T09:22:28.505Z,971.09
2017-01-16T09:23:28.501Z,971.11
2017-01-16T09:24:28.497Z,971.08
2017-01-16T09:25:28.489Z,971.12
2017-01-16T09:26:28.485Z,971.12
2017-01-16T09:27:28.486Z,971.12
2017-01-16T09:28:28.482Z,971.13
2017-01-16T09:29:28.481Z,971.14
2017-01-16T09:30:28.477Z,971.13
2017-01-16T09:31:28.474Z,971.1
2017-01-16T09:32:28.470Z,971.12
2017-01-16T09:33:28.466Z,971.11
2017-01-16T09:34:28.458Z,971.15
2017-01-16T09:35:28.455Z,971.12
2017-01-16T09:36:28.459Z,971.12
2017-01-16T09:37:28.451Z,971.08
2017-01-16T09:38:28.451Z,971.16
2017-01-16T09:39:28.447Z,971.13
2017-01-16T09:40:28.443Z,971.16
2017-01-16T09:41:28.436Z,971.13
2017-01-16T09:42:28.439Z,971.19
2017-01-16T09:43:28.429Z,971.16
2017-01-16T09:44:28.431Z,971.13
2017-01-16T09:45:28.424Z,971.15
2017-01-16T09:46:28.420Z,971.17
2017-01-16T09:47:28.424Z,971.18
2017-01-16T09:48:28.420Z,971.19
2017-01-16T09:49:28.416Z,971.16
2017-01-16T09:50:28.412Z,971.17
2017-01-16T09:51:28.408Z,971.16
2017-01-16T09:52:28.408Z,971.21
2017-01-16T09:53:28.404Z,971.21
2017-01-16T09:54:28.399Z,971.2
2017-01-16T09:55:28.396Z,971.19
2017-01-16T09:56:28.393Z,971.18
2017-01-16T09:57:28.389Z,971.19
2017-01-16T09:58:28.385Z,971.2
2017-01-16T09:59:28.382Z,971.17
2017-01-16T10:00:28.378Z,971.18
2017-01-16T10:01:28.630Z,971.22
2017-01-16T10:02:28.370Z,971.23
2017-01-16T10:03:28.373Z,971.19
2017-01-16T10:04:28.372Z,971.17
2017-01-16T10:05:28.366Z,971.2
2017-01-16T10:06:28.362Z,971.18
2017-01-16T10:07:28.358Z,971.18
2017-01-16T10:08:28.358Z,971.2
2017-01-16T10:09:28.354Z,971.18
2017-01-16T10:10:28.351Z,971.21
2017-01-16T10:11:28.347Z,971.22
2017-01-16T10:12:28.343Z,971.2
2017-01-16T10:13:28.343Z,971.18
2017-01-16T10:14:28.339Z,971.18
2017-01-16T10:15:28.335Z,971.18
2017-01-16T10:16:28.335Z,971.18
2017-01-16T10:17:28.332Z,971.14
2017-01-16T10:18:28.328Z,971.13
2017-01-16T10:19:28.323Z,971.14
2017-01-16T10:20:28.315Z,971.1
2017-01-16T10:21:28.316Z,971.09
2017-01-16T10:22:28.316Z,971.13
2017-01-16T10:23:28.308Z,971.1
2017-01-16T10:24:28.304Z,971.07
2017-01-16T10:25:28.308Z,971.13
2017-01-16T10:26:28.304Z,971.1
2017-01-16T10:27:28.300Z,971.12
2017-01-16T10:28:28.296Z,971.09
2017-01-16T10:29:28.296Z,971.1
2017-01-16T10:30:28.292Z,971.06
2017-01-16T10:31:28.289Z,971.06
2017-01-16T10:32:28.281Z,971.07
2017-01-16T10:33:28.282Z,971.13
2017-01-16T10:34:28.281Z,971.09
2017-01-16T10:35:28.273Z,971.08
2017-01-16T10:36:28.273Z,971.14
2017-01-16T10:37:28.274Z,971.07
2017-01-16T10:38:28.269Z,971.03
2017-01-16T10:39:28.265Z,971.05
2017-01-16T10:40:28.266Z,971.06
2017-01-16T10:41:28.262Z,971.07
2017-01-16T10:42:28.257Z,971.06
2017-01-16T10:43:28.254Z,971.11
2017-01-16T10:44:28.254Z,971.09
2017-01-16T10:45:28.250Z,971.08
2017-01-16T10:46:28.246Z,971.09
2017-01-16T10:47:28.246Z,971.11
2017-01-16T10:48:28.242Z,971.1
2017-01-16T10:49:28.238Z,971.11
2017-01-16T10:50:28.238Z,971.12
2017-01-16T10:51:28.234Z,971.1
2017-01-16T10:52:28.231Z,971.15
2017-01-16T10:53:28.230Z,971.11
2017-01-16T10:54:28.226Z,971.11
2017-01-16T10:55:28.219Z,971.15
2017-01-16T10:56:28.219Z,971.1
2017-01-16T10:57:28.220Z,971.06
2017-01-16T10:58:28.219Z,971.08
2017-01-16T10:59:28.215Z,971.07
2017-01-16T11:00:28.215Z,971.05
2017-01-16T11:01:28.211Z,971.06
2017-01-16T11:02:28.211Z,971.05
2017-01-16T11:03:28.207Z,971
2017-01-16T11:04:28.203Z,971.05
2017-01-16T11:05:28.203Z,971.07
2017-01-16T11:06:28.195Z,971.06
2017-01-16T11:07:28.191Z,971.04
2017-01-16T11:08:28.191Z,971.08
2017-01-16T11:09:28.190Z,971.03
2017-01-16T11:10:28.187Z,971.03
2017-01-16T11:11:28.184Z,971
2017-01-16T11:12:28.183Z,971
2017-01-16T11:13:28.182Z,971
2017-01-16T11:14:28.178Z,971
2017-01-16T11:15:28.179Z,971.02
2017-01-16T11:16:28.175Z,971.01
2017-01-16T11:17:28.175Z,970.99
2017-01-16T11:18:28.170Z,971
2017-01-16T11:19:28.170Z,970.96
2017-01-16T11:20:28.167Z,970.98
2017-01-16T11:21:28.162Z,970.97
2017-01-16T11:22:28.166Z,970.95
2017-01-16T11:23:28.159Z,970.95
2017-01-16T11:24:28.159Z,970.95
2017-01-16T11:25:28.155Z,970.97
2017-01-16T11:26:28.155Z,970.95
2017-01-16T11:27:28.154Z,970.94
2017-01-16T11:28:28.146Z,970.92
2017-01-16T11:29:28.146Z,970.95
2017-01-16T11:30:28.142Z,970.95
2017-01-16T11:31:28.142Z,970.92
2017-01-16T11:32:28.138Z,970.95
2017-01-16T11:33:28.135Z,970.92
2017-01-16T11:34:28.135Z,970.92
2017-01-16T11:35:28.134Z,970.92
2017-01-16T11:36:28.131Z,970.93
2017-01-16T11:37:28.127Z,970.96
2017-01-16T11:38:28.126Z,970.95
2017-01-16T11:39:28.122Z,970.94
2017-01-16T11:40:28.122Z,970.92
2017-01-16T11:41:28.119Z,970.93
2017-01-16T11:42:28.118Z,970.94
2017-01-16T11:43:28.114Z,970.94
2017-01-16T11:44:28.110Z,970.94
2017-01-16T11:45:28.106Z,970.94
2017-01-16T11:46:28.102Z,970.92
2017-01-16T11:47:28.106Z,970.93
2017-01-16T11:48:28.102Z,970.91
2017-01-16T11:49:28.104Z,970.88
2017-01-16T11:50:28.098Z,970.92
2017-01-16T11:51:28.097Z,970.9
2017-01-16T11:52:28.094Z,970.93
2017-01-16T11:53:28.094Z,970.91
2017-01-16T11:54:28.090Z,970.91
2017-01-16T11:55:28.087Z,970.92
2017-01-16T11:56:28.081Z,970.91
2017-01-16T11:57:28.077Z,970.85
2017-01-16T11:58:28.081Z,970.86
2017-01-16T11:59:28.077Z,970.86
2017-01-16T12:00:28.077Z,970.88
2017-01-16T12:01:28.073Z,970.92
2017-01-16T12:02:28.073Z,970.83
2017-01-16T12:03:28.069Z,970.84
2017-01-16T12:04:28.069Z,970.82
2017-01-16T12:05:28.061Z,970.78
2017-01-16T12:06:28.065Z,970.8
2017-01-16T12:07:28.061Z,970.83
2017-01-16T12:08:28.060Z,970.84
2017-01-16T12:09:28.057Z,970.83
2017-01-16T12:10:28.056Z,970.85
2017-01-16T12:11:28.053Z,970.84
2017-01-16T12:12:28.044Z,970.84
2017-01-16T12:13:28.044Z,970.84
2017-01-16T12:14:28.040Z,970.85
2017-01-16T12:15:28.044Z,970.83
2017-01-16T12:16:28.040Z,970.89
2017-01-16T12:17:28.039Z,970.84
2017-01-16T12:18:28.035Z,970.83
2017-01-16T12:19:28.035Z,970.82
2017-01-16T12:20:28.031Z,970.82
2017-01-16T12:21:28.027Z,970.78
2017-01-16T12:22:28.023Z,970.82
2017-01-16T12:23:28.019Z,970.8
2017-01-16T12:24:28.019Z,970.79
2017-01-16T12:25:28.015Z,970.81
2017-01-16T12:26:28.015Z,970.81
2017-01-16T12:27:28.011Z,970.81
2017-01-16T12:28:28.010Z,970.81
2017-01-16T12:29:28.006Z,970.79
2017-01-16T12:30:28.002Z,970.79
2017-01-16T12:31:28.006Z,970.83